Terminal Aerodrome Forecast
Issued by NWS St Louis, MO

Home | Current Version | Previous Version | Text Only | Print | Product List | Glossary On
Versions: 1 2 3 4 5 6 7 8 9 10 11 12 13 14 15 16 17 18 19 20 21 22 23 24 25 26 27 28
000
FTUS43 KLSX 171707 AAD
TAFSTL
TAF AMD
KSTL 171707Z 1717/1818 15008KT 2SM -SN BR OVC008
      TEMPO 1717/1718 4SM -RA BR OVC020
     FM171800 20010KT 6SM -RA OVC010
     FM172100 24008KT P6SM BKN050
     FM180300 VRB04KT 6SM BR SKC
     FM181400 14010KT P6SM SKC=

USA.gov is the U.S. government's official web portal to all federal, state and local government web resources and services.